createdAt,value
2024-02-15T00:00:35.280Z,3.28
2024-02-15T00:02:07.890Z,4.03
2024-02-15T00:05:29.385Z,4.13
2024-02-15T00:07:01.189Z,4.65
2024-02-15T00:08:36.268Z,4.43
2024-02-15T00:10:10.005Z,6.03
2024-02-15T00:11:42.688Z,4.97
2024-02-15T00:13:14.455Z,3.43
2024-02-15T00:14:47.094Z,4.78
2024-02-15T00:16:19.699Z,4.85
2024-02-15T00:17:52.912Z,5.75
2024-02-15T00:19:25.187Z,4.43
2024-02-15T00:20:57.883Z,6.95
2024-02-15T00:22:29.543Z,3.80
2024-02-15T00:24:03.583Z,3.55
2024-02-15T00:25:36.027Z,5.07
2024-02-15T00:27:08.651Z,4.55
2024-02-15T00:28:42.448Z,3.28
2024-02-15T00:30:17.982Z,3.78
2024-02-15T00:31:50.703Z,3.77
2024-02-15T00:33:23.924Z,5.63
2024-02-15T00:34:56.025Z,8.45
2024-02-15T00:36:29.082Z,3.17
2024-02-15T00:38:00.758Z,4.35
2024-02-15T00:39:34.784Z,4.68
2024-02-15T00:41:07.098Z,4.33
2024-02-15T00:42:40.353Z,3.35
2024-02-15T00:44:12.903Z,3.60
2024-02-15T00:45:45.532Z,4.80
2024-02-15T00:47:19.412Z,3.50
2024-02-15T00:48:52.067Z,4.32
2024-02-15T00:50:23.846Z,4.73
2024-02-15T00:51:56.478Z,4.68
2024-02-15T00:53:28.234Z,3.13
2024-02-15T00:55:02.207Z,4.88
2024-02-15T00:56:34.121Z,4.72
2024-02-15T00:58:06.896Z,5.50
2024-02-15T00:59:38.762Z,5.40
2024-02-15T01:01:11.817Z,4.25
2024-02-15T01:02:43.533Z,3.38
2024-02-15T01:04:16.211Z,4.55
2024-02-15T01:05:47.980Z,3.58
2024-02-15T01:07:20.611Z,3.50
2024-02-15T01:08:53.668Z,3.90
2024-02-15T01:10:27.774Z,2.08
2024-02-15T01:11:59.609Z,2.50
2024-02-15T01:13:32.257Z,4.07
2024-02-15T01:15:04.496Z,2.83
2024-02-15T01:16:37.970Z,3.95
2024-02-15T01:18:09.730Z,5.67
2024-02-15T01:19:42.404Z,6.75
2024-02-15T01:21:14.368Z,2.75
2024-02-15T01:22:46.984Z,4.38
2024-02-15T01:24:18.668Z,7.65
2024-02-15T01:25:52.613Z,3.88
2024-02-15T01:27:24.261Z,4.63
2024-02-15T01:28:56.909Z,4.20
2024-02-15T01:30:29.755Z,4.03
2024-02-15T01:32:02.797Z,4.60
2024-02-15T01:33:34.644Z,5.10
2024-02-15T01:35:08.968Z,7.68
2024-02-15T01:36:40.716Z,2.07
2024-02-15T01:38:13.409Z,8.70
2024-02-15T01:39:45.057Z,3.63
2024-02-15T01:41:18.984Z,4.47
2024-02-15T01:42:50.931Z,6.75
2024-02-15T01:44:25.575Z,7.50
2024-02-15T01:46:00.327Z,7.23
2024-02-15T01:47:33.526Z,5.00
2024-02-15T01:49:06.379Z,4.18
2024-02-15T01:50:39.141Z,6.30
2024-02-15T01:52:10.955Z,6.80
2024-02-15T01:53:44.342Z,4.82
2024-02-15T01:55:17.880Z,8.68
2024-02-15T01:56:51.996Z,6.72
2024-02-15T01:58:23.688Z,6.75
2024-02-15T01:59:56.416Z,8.82
2024-02-15T02:01:28.850Z,7.00
2024-02-15T02:03:04.837Z,6.20
2024-02-15T02:04:36.568Z,4.05
2024-02-15T02:06:09.934Z,5.32
2024-02-15T02:07:42.681Z,5.20
2024-02-15T02:09:16.194Z,4.90
2024-02-15T02:10:47.915Z,6.40
2024-02-15T02:12:21.919Z,7.13
2024-02-15T02:13:53.645Z,8.73
2024-02-15T02:15:26.275Z,7.10
2024-02-15T02:17:12.011Z,5.78
2024-02-15T02:18:44.878Z,7.18
2024-02-15T02:20:18.041Z,8.10
2024-02-15T02:21:51.722Z,4.50
2024-02-15T02:23:28.316Z,4.20
2024-02-15T02:25:04.468Z,7.72
2024-02-15T02:26:37.523Z,4.93
2024-02-15T02:28:09.693Z,5.35
2024-02-15T02:29:46.798Z,5.03
2024-02-15T02:31:19.447Z,8.48
2024-02-15T02:32:51.280Z,5.22
2024-02-15T02:34:24.015Z,7.13
2024-02-15T02:35:55.915Z,6.05
2024-02-15T02:37:29.253Z,8.40
2024-02-15T02:39:02.394Z,9.20
2024-02-15T02:40:37.211Z,7.13
2024-02-15T02:42:09.261Z,8.27
2024-02-15T02:43:41.912Z,5.32
2024-02-15T02:45:13.694Z,6.90
2024-02-15T02:46:46.362Z,7.23
2024-02-15T02:48:20.063Z,4.88
2024-02-15T02:49:51.931Z,8.15
2024-02-15T02:51:24.619Z,9.27
2024-02-15T02:52:57.256Z,10.43
2024-02-15T02:54:30.360Z,7.47
2024-02-15T02:56:04.961Z,6.55
2024-02-15T02:57:38.257Z,7.28
2024-02-15T02:59:10.930Z,7.30
2024-02-15T03:00:43.830Z,6.97
2024-02-15T03:02:16.514Z,15.07
2024-02-15T03:03:48.987Z,8.27
2024-02-15T03:05:22.803Z,7.30
2024-02-15T03:06:57.129Z,7.45
2024-02-15T03:08:30.039Z,7.35
2024-02-15T03:10:01.840Z,4.47
2024-02-15T03:11:36.720Z,8.23
2024-02-15T03:13:10.308Z,5.90
2024-02-15T03:14:42.236Z,8.20
2024-02-15T03:16:14.923Z,9.85
2024-02-15T03:17:48.404Z,7.20
2024-02-15T03:19:21.254Z,13.60
2024-02-15T03:20:53.149Z,10.02
2024-02-15T03:22:27.051Z,11.65
2024-02-15T03:23:58.769Z,13.13
2024-02-15T03:25:31.717Z,9.57
2024-02-15T03:27:06.134Z,6.82
2024-02-15T03:28:39.021Z,7.95
2024-02-15T03:30:11.775Z,9.25
2024-02-15T03:31:44.389Z,7.70
2024-02-15T03:33:16.141Z,8.95
2024-02-15T03:34:49.045Z,12.25
2024-02-15T03:36:21.283Z,9.27
2024-02-15T03:37:54.721Z,5.60
2024-02-15T03:39:26.346Z,8.98
2024-02-15T03:40:58.935Z,8.63
2024-02-15T03:42:31.908Z,7.47
2024-02-15T03:44:05.148Z,10.05
2024-02-15T03:45:38.048Z,10.60
2024-02-15T03:47:09.799Z,5.40
2024-02-15T03:48:45.904Z,9.27
2024-02-15T03:50:20.127Z,6.88
2024-02-15T03:51:51.938Z,9.35
2024-02-15T03:53:24.559Z,6.68
2024-02-15T03:54:56.222Z,5.30
2024-02-15T03:56:29.275Z,8.27
2024-02-15T03:58:02.246Z,8.18
2024-02-15T03:59:36.166Z,12.47
2024-02-15T04:01:10.862Z,9.88
2024-02-15T04:02:43.622Z,9.15
2024-02-15T04:04:16.202Z,7.90
2024-02-15T04:05:49.994Z,6.50
2024-02-15T04:07:22.848Z,7.05
2024-02-15T04:08:55.653Z,9.60
2024-02-15T04:10:27.301Z,6.40
2024-02-15T04:11:59.908Z,12.25
2024-02-15T04:13:33.283Z,6.43
2024-02-15T04:15:13.749Z,8.15
2024-02-15T04:16:46.279Z,8.15
2024-02-15T04:18:18.967Z,5.75
2024-02-15T04:19:51.600Z,5.75
2024-02-15T04:21:24.323Z,8.20
2024-02-15T04:22:57.784Z,7.45
2024-02-15T04:24:30.869Z,7.10
2024-02-15T04:26:02.415Z,10.05
2024-02-15T04:27:35.218Z,8.02
2024-02-15T04:29:09.939Z,10.88
2024-02-15T04:30:42.485Z,7.32
2024-02-15T04:32:14.341Z,6.53
2024-02-15T04:33:50.155Z,8.17
2024-02-15T04:35:22.776Z,6.03
2024-02-15T04:36:56.529Z,7.68
2024-02-15T04:38:28.080Z,7.95
2024-02-15T04:40:08.202Z,7.25
2024-02-15T04:41:40.156Z,8.07
2024-02-15T04:43:12.653Z,5.17
2024-02-15T04:44:45.519Z,9.43
2024-02-15T04:46:18.006Z,10.80
2024-02-15T04:47:52.272Z,10.18
2024-02-15T04:49:24.926Z,5.63
2024-02-15T04:51:00.536Z,8.50
2024-02-15T04:52:33.143Z,9.20
2024-02-15T04:54:04.829Z,6.25
2024-02-15T04:55:37.437Z,6.88
2024-02-15T04:57:12.727Z,7.85
2024-02-15T04:58:48.325Z,8.35
2024-02-15T05:00:23.568Z,8.23
2024-02-15T05:01:57.284Z,7.17
2024-02-15T05:03:29.982Z,9.90
2024-02-15T05:05:02.529Z,7.35
2024-02-15T05:06:34.364Z,10.45
2024-02-15T05:08:07.393Z,7.40
2024-02-15T05:09:38.891Z,8.03
2024-02-15T05:11:16.104Z,5.30
2024-02-15T05:12:49.015Z,9.95
2024-02-15T05:14:22.193Z,8.15
2024-02-15T05:15:55.732Z,6.07
2024-02-15T05:17:29.699Z,6.18
2024-02-15T05:19:04.182Z,5.70
2024-02-15T05:20:35.984Z,7.13
2024-02-15T05:22:08.488Z,8.05
2024-02-15T05:23:41.151Z,9.80
2024-02-15T05:25:16.671Z,7.45
2024-02-15T05:26:49.873Z,7.07
2024-02-15T05:28:27.810Z,9.83
2024-02-15T05:29:59.469Z,8.95
2024-02-15T05:31:35.802Z,6.30
2024-02-15T05:33:11.499Z,9.75
2024-02-15T05:34:43.257Z,5.30
2024-02-15T05:36:16.947Z,5.13
2024-02-15T05:37:48.507Z,8.60
2024-02-15T05:39:23.069Z,7.65
2024-02-15T05:40:54.918Z,5.95
2024-02-15T05:42:28.026Z,8.32
2024-02-15T05:44:00.245Z,6.10
2024-02-15T05:45:37.388Z,7.93
2024-02-15T05:47:12.583Z,6.65
2024-02-15T05:48:45.469Z,11.80
2024-02-15T05:50:17.446Z,4.53
2024-02-15T05:51:50.058Z,7.45
2024-02-15T05:53:22.735Z,8.07
2024-02-15T05:54:55.585Z,10.13
2024-02-15T05:56:27.420Z,5.75
2024-02-15T05:57:59.912Z,6.43
2024-02-15T05:59:31.594Z,8.70
2024-02-15T06:01:07.894Z,8.07
2024-02-15T06:02:40.945Z,9.67
2024-02-15T06:04:13.867Z,6.05
2024-02-15T06:05:46.549Z,9.00
2024-02-15T06:07:19.942Z,8.45
2024-02-15T06:08:52.620Z,6.50
2024-02-15T06:10:24.168Z,7.57
2024-02-15T06:11:57.904Z,11.05
2024-02-15T06:13:29.412Z,8.50
2024-02-15T06:15:01.940Z,8.30
2024-02-15T06:16:34.401Z,8.88
2024-02-15T06:18:11.186Z,7.72
2024-02-15T06:19:44.778Z,8.32
2024-02-15T06:21:16.350Z,5.50
2024-02-15T06:22:49.351Z,8.55
2024-02-15T06:24:20.962Z,5.93
2024-02-15T06:25:55.098Z,6.30
2024-02-15T06:27:27.008Z,8.30
2024-02-15T06:29:17.520Z,8.02
2024-02-15T06:31:07.914Z,7.93
2024-02-15T06:32:57.917Z,5.50
2024-02-15T06:34:48.773Z,8.50
2024-02-15T06:36:38.688Z,7.33
2024-02-15T06:38:29.004Z,7.95
2024-02-15T06:40:01.562Z,8.05
2024-02-15T06:41:33.115Z,7.07
2024-02-15T06:43:05.596Z,9.27
2024-02-15T06:44:37.201Z,7.03
2024-02-15T06:46:11.705Z,7.22
2024-02-15T06:47:44.863Z,10.43
2024-02-15T06:49:17.624Z,7.72
2024-02-15T06:50:50.720Z,4.00
2024-02-15T06:52:23.578Z,7.03
2024-02-15T06:53:56.917Z,6.50
2024-02-15T06:55:29.639Z,5.60
2024-02-15T06:57:02.156Z,5.50
2024-02-15T06:58:35.380Z,6.80
2024-02-15T07:00:08.643Z,6.82
2024-02-15T07:01:41.233Z,5.37
2024-02-15T07:03:12.883Z,7.38
2024-02-15T07:04:46.910Z,7.07
2024-02-15T07:06:19.978Z,5.00
2024-02-15T07:07:53.263Z,8.10
2024-02-15T07:09:25.554Z,8.98
2024-02-15T07:10:58.221Z,5.68
2024-02-15T07:12:31.111Z,4.60
2024-02-15T07:14:02.753Z,4.15
2024-02-15T07:15:39.010Z,7.57
2024-02-15T07:17:11.823Z,7.53
2024-02-15T07:18:44.720Z,5.72
2024-02-15T07:20:18.303Z,5.53
2024-02-15T07:21:52.205Z,9.85
2024-02-15T07:23:23.853Z,6.55
2024-02-15T07:24:57.169Z,6.55
2024-02-15T07:26:29.675Z,6.63
2024-02-15T07:28:01.376Z,5.13
2024-02-15T07:29:34.045Z,9.45
2024-02-15T07:31:05.689Z,5.38
2024-02-15T07:32:38.408Z,7.70
2024-02-15T07:34:10.386Z,5.37
2024-02-15T07:35:44.353Z,5.22
2024-02-15T07:37:17.375Z,11.93
2024-02-15T07:38:50.555Z,7.22
2024-02-15T07:40:23.234Z,6.40
2024-02-15T07:41:57.813Z,5.90
2024-02-15T07:43:29.565Z,6.57
2024-02-15T07:45:02.255Z,9.10
2024-02-15T07:46:35.675Z,9.02
2024-02-15T07:48:08.181Z,10.18
2024-02-15T07:49:41.294Z,5.30
2024-02-15T07:51:13.739Z,5.73
2024-02-15T07:52:49.031Z,5.03
2024-02-15T07:54:22.899Z,8.18
2024-02-15T07:55:54.770Z,5.85
2024-02-15T07:57:28.018Z,4.50
2024-02-15T07:58:59.744Z,6.88
2024-02-15T08:00:32.775Z,6.03
2024-02-15T08:02:04.834Z,6.97
2024-02-15T08:03:37.668Z,6.07
2024-02-15T08:05:12.115Z,7.38
2024-02-15T08:06:45.092Z,5.80
2024-02-15T08:08:19.219Z,4.70
2024-02-15T08:09:52.753Z,6.20
2024-02-15T08:11:27.727Z,4.38
2024-02-15T08:13:00.239Z,7.53
2024-02-15T08:14:33.494Z,5.07
2024-02-15T08:16:06.685Z,9.23
2024-02-15T08:17:40.397Z,8.00
2024-02-15T08:19:12.468Z,5.05
2024-02-15T08:20:45.852Z,5.97
2024-02-15T08:22:17.665Z,4.80
2024-02-15T08:23:51.568Z,6.57
2024-02-15T08:25:24.090Z,6.65
2024-02-15T08:27:01.808Z,5.03
2024-02-15T08:28:33.402Z,5.40
2024-02-15T08:30:09.702Z,4.32
2024-02-15T08:31:42.515Z,4.33
2024-02-15T08:33:15.304Z,6.57
2024-02-15T08:34:49.602Z,5.63
2024-02-15T08:36:22.797Z,4.25
2024-02-15T08:37:55.530Z,5.55
2024-02-15T08:39:29.492Z,5.78
2024-02-15T08:41:01.129Z,3.78
2024-02-15T08:42:33.676Z,5.68
2024-02-15T08:44:10.057Z,5.40
2024-02-15T08:45:42.848Z,6.15
2024-02-15T08:47:14.410Z,5.40
2024-02-15T08:48:47.928Z,4.43
2024-02-15T08:50:20.872Z,4.18
2024-02-15T08:51:53.504Z,7.60
2024-02-15T08:53:25.604Z,5.03
2024-02-15T08:55:01.749Z,8.57
2024-02-15T08:56:34.601Z,4.03
2024-02-15T08:58:07.150Z,6.05
2024-02-15T08:59:40.279Z,5.03
2024-02-15T09:01:14.292Z,4.32
2024-02-15T09:02:46.543Z,4.13
2024-02-15T09:04:19.214Z,3.08
2024-02-15T09:05:50.949Z,2.40
2024-02-15T09:07:23.696Z,3.88
2024-02-15T09:08:55.352Z,3.47
2024-02-15T09:10:29.271Z,4.03
2024-02-15T09:12:06.810Z,6.35
2024-02-15T09:13:39.976Z,4.47
2024-02-15T09:15:12.014Z,3.40
2024-02-15T09:16:44.650Z,5.68
2024-02-15T09:18:16.321Z,2.50
2024-02-15T09:19:50.127Z,1.92
2024-02-15T09:21:23.236Z,5.03
2024-02-15T09:22:55.939Z,4.60
2024-02-15T09:24:28.496Z,2.47
2024-02-15T09:26:01.365Z,3.45
2024-02-15T09:27:33.868Z,5.70
2024-02-15T09:29:08.526Z,2.13
2024-02-15T09:30:41.359Z,1.70
2024-02-15T09:32:13.054Z,4.70
2024-02-15T09:33:46.801Z,4.60
2024-02-15T09:35:18.744Z,5.22
2024-02-15T09:36:51.275Z,4.00
2024-02-15T09:38:23.785Z,6.53
2024-02-15T09:39:56.144Z,1.73
2024-02-15T09:41:30.068Z,2.33
2024-02-15T09:43:01.719Z,3.27
2024-02-15T09:44:34.605Z,4.40
2024-02-15T09:46:07.626Z,2.22
2024-02-15T09:47:41.587Z,3.83
2024-02-15T09:49:14.686Z,2.67
2024-02-15T09:50:47.855Z,4.63
2024-02-15T09:52:19.634Z,1.47
2024-02-15T09:53:52.661Z,3.75
2024-02-15T09:55:25.522Z,3.30
2024-02-15T09:57:03.388Z,2.78
2024-02-15T09:58:35.903Z,1.85
2024-02-15T10:00:09.769Z,2.55
2024-02-15T10:01:42.943Z,3.17
2024-02-15T10:03:20.120Z,2.00
2024-02-15T10:04:52.905Z,4.22
2024-02-15T10:06:24.786Z,1.75
2024-02-15T10:07:57.341Z,3.00
2024-02-15T10:09:29.879Z,2.60
2024-02-15T10:11:10.233Z,3.57
2024-02-15T10:12:44.591Z,1.30
2024-02-15T10:14:17.075Z,3.88
2024-02-15T10:15:49.576Z,4.07
2024-02-15T10:17:21.309Z,3.85
2024-02-15T10:18:54.659Z,0.98
2024-02-15T10:20:26.770Z,2.17
2024-02-15T10:22:08.175Z,3.10
2024-02-15T10:23:39.832Z,9.13
2024-02-15T10:25:13.383Z,4.07
2024-02-15T10:26:49.084Z,2.45
2024-02-15T10:28:25.211Z,2.60
2024-02-15T10:30:16.288Z,2.43
2024-02-15T10:31:56.435Z,1.77
2024-02-15T10:33:30.334Z,4.20
2024-02-15T10:35:05.257Z,1.65
2024-02-15T10:36:36.901Z,4.53
2024-02-15T10:38:11.246Z,3.78
2024-02-15T10:39:42.986Z,6.10
2024-02-15T10:41:16.979Z,2.73
2024-02-15T10:42:49.561Z,1.77
2024-02-15T10:44:24.937Z,3.17
2024-02-15T10:45:58.069Z,1.55
2024-02-15T10:47:30.974Z,2.60
2024-02-15T10:49:02.663Z,3.00
2024-02-15T10:50:35.279Z,1.38
2024-02-15T10:52:10.909Z,1.90
2024-02-15T10:53:53.599Z,2.42
2024-02-15T10:55:39.822Z,2.70
2024-02-15T10:57:15.403Z,2.63
2024-02-15T10:58:51.509Z,5.25
2024-02-15T11:00:32.457Z,2.33
2024-02-15T11:02:24.083Z,3.50
2024-02-15T11:04:01.435Z,3.10
2024-02-15T11:05:39.202Z,2.33
2024-02-15T11:07:12.534Z,2.50
2024-02-15T11:08:46.098Z,3.20
2024-02-15T11:10:19.195Z,1.40
2024-02-15T11:11:52.234Z,2.90
2024-02-15T11:13:24.735Z,5.82
2024-02-15T11:14:56.389Z,1.02
2024-02-15T11:16:46.726Z,3.70
2024-02-15T11:18:46.421Z,3.63
2024-02-15T11:20:51.246Z,4.00
2024-02-15T11:22:24.095Z,1.60
2024-02-15T11:23:55.930Z,1.23
2024-02-15T11:25:35.097Z,1.73
2024-02-15T11:27:09.274Z,4.07
2024-02-15T11:28:41.391Z,2.92
2024-02-15T11:30:35.182Z,1.38
2024-02-15T11:32:08.122Z,2.92
2024-02-15T11:33:41.045Z,2.42
2024-02-15T11:35:15.491Z,2.80
2024-02-15T11:36:48.672Z,2.00
2024-02-15T11:38:29.266Z,3.10
2024-02-15T11:40:01.912Z,1.40
2024-02-15T11:41:34.403Z,2.22
2024-02-15T11:43:05.941Z,2.78
2024-02-15T11:44:38.742Z,3.63
2024-02-15T11:46:14.355Z,2.88
2024-02-15T11:47:51.504Z,3.17
2024-02-15T11:49:25.570Z,1.93
2024-02-15T11:50:58.476Z,2.53
2024-02-15T11:52:32.633Z,2.17
2024-02-15T11:54:12.379Z,4.40
2024-02-15T11:55:44.047Z,1.90
2024-02-15T11:57:27.083Z,4.57
2024-02-15T11:59:07.603Z,1.77
2024-02-15T12:00:58.150Z,2.30
2024-02-15T12:02:59.937Z,2.58
2024-02-15T12:04:51.498Z,0.43
2024-02-15T12:06:50.726Z,11.43
2024-02-15T12:08:41.354Z,1.95
2024-02-15T12:10:35.719Z,1.25
2024-02-15T12:12:25.959Z,5.60
2024-02-15T12:14:16.050Z,1.70
2024-02-15T12:16:18.224Z,2.33
2024-02-15T12:18:08.517Z,5.40
2024-02-15T12:19:42.615Z,1.40
2024-02-15T12:21:17.753Z,5.35
2024-02-15T12:22:51.377Z,2.20
2024-02-15T12:24:27.574Z,1.40
2024-02-15T12:26:00.166Z,2.20
2024-02-15T12:27:31.701Z,3.05
2024-02-15T12:29:04.289Z,2.05
2024-02-15T12:30:37.690Z,5.70
2024-02-15T12:32:10.807Z,4.15
2024-02-15T12:33:43.173Z,2.20
2024-02-15T12:35:20.892Z,2.50
2024-02-15T12:37:06.342Z,6.15
2024-02-15T12:38:39.445Z,1.73
2024-02-15T12:40:11.916Z,2.10
2024-02-15T12:41:50.967Z,2.40
2024-02-15T12:43:22.721Z,3.00
2024-02-15T12:44:55.957Z,2.42
2024-02-15T12:46:28.171Z,3.05
2024-02-15T12:48:00.821Z,3.73
2024-02-15T12:49:33.670Z,3.37
2024-02-15T12:51:16.442Z,3.83
2024-02-15T12:52:48.619Z,2.85
2024-02-15T12:54:23.086Z,1.65
2024-02-15T12:56:00.220Z,4.95
2024-02-15T12:57:33.602Z,2.60
2024-02-15T12:59:07.592Z,3.22
2024-02-15T13:00:41.742Z,3.25
2024-02-15T13:02:15.608Z,4.60
2024-02-15T13:03:48.108Z,6.00
2024-02-15T13:05:20.640Z,2.10
2024-02-15T13:06:54.933Z,4.57
2024-02-15T13:08:27.674Z,2.42
2024-02-15T13:09:59.732Z,2.88
2024-02-15T13:11:33.231Z,2.03
2024-02-15T13:13:05.020Z,3.10
2024-02-15T13:14:37.801Z,3.50
2024-02-15T13:16:10.618Z,3.47
2024-02-15T13:17:45.627Z,4.10
2024-02-15T13:19:19.438Z,2.70
2024-02-15T13:20:53.863Z,3.05
2024-02-15T13:22:28.226Z,5.05
2024-02-15T13:24:00.973Z,2.93
2024-02-15T13:25:33.499Z,4.30
2024-02-15T13:27:06.378Z,3.67
2024-02-15T13:28:39.095Z,3.30
2024-02-15T13:30:12.256Z,3.30
2024-02-15T13:31:45.013Z,2.33
2024-02-15T13:33:17.717Z,3.40
2024-02-15T13:34:52.886Z,2.43
2024-02-15T13:36:25.726Z,2.70
2024-02-15T13:38:01.830Z,3.97
2024-02-15T13:39:34.246Z,3.45
2024-02-15T13:41:06.929Z,3.70
2024-02-15T13:42:38.631Z,2.47
2024-02-15T13:44:11.910Z,4.30
2024-02-15T13:45:45.224Z,4.90
2024-02-15T13:47:23.543Z,2.50
2024-02-15T13:48:55.486Z,2.40
2024-02-15T13:50:31.507Z,3.22
2024-02-15T13:52:04.377Z,4.22
2024-02-15T13:53:38.567Z,2.83
2024-02-15T13:55:12.587Z,4.95
2024-02-15T13:56:45.827Z,4.53
2024-02-15T13:58:17.449Z,3.28
2024-02-15T13:59:50.124Z,2.78
2024-02-15T14:01:22.888Z,2.63
2024-02-15T14:02:56.539Z,3.00
2024-02-15T14:04:33.339Z,2.83
2024-02-15T14:06:06.563Z,3.03
2024-02-15T14:07:38.591Z,1.83
2024-02-15T14:09:13.481Z,1.27
2024-02-15T14:10:45.708Z,4.32
2024-02-15T14:12:18.798Z,5.22
2024-02-15T14:13:50.960Z,3.20
2024-02-15T14:15:23.751Z,2.42
2024-02-15T14:16:56.446Z,1.30
2024-02-15T14:18:29.350Z,3.70
2024-02-15T14:20:02.246Z,2.22
2024-02-15T14:21:39.427Z,2.63
2024-02-15T14:23:15.092Z,1.58
2024-02-15T14:24:49.683Z,4.03
2024-02-15T14:26:23.390Z,2.20
2024-02-15T14:27:57.195Z,1.47
2024-02-15T14:29:34.048Z,1.15
2024-02-15T14:31:24.262Z,2.03
2024-02-15T14:33:05.610Z,3.70
2024-02-15T14:34:38.026Z,2.78
2024-02-15T14:36:10.946Z,3.92
2024-02-15T14:37:42.936Z,3.17
2024-02-15T14:39:23.292Z,1.58
2024-02-15T14:40:58.391Z,1.38
2024-02-15T14:42:31.349Z,5.63
2024-02-15T14:44:03.047Z,2.58
2024-02-15T14:45:37.366Z,1.48
2024-02-15T14:47:10.019Z,3.00
2024-02-15T14:48:44.700Z,3.57
2024-02-15T14:50:16.428Z,5.10
2024-02-15T14:51:50.399Z,3.53
2024-02-15T14:53:22.535Z,3.15
2024-02-15T14:54:55.433Z,4.22
2024-02-15T14:56:28.452Z,2.88
2024-02-15T14:59:35.849Z,1.80
2024-02-15T15:01:10.659Z,3.67
2024-02-15T15:02:42.864Z,4.00
2024-02-15T15:04:15.587Z,1.38
2024-02-15T15:06:06.626Z,1.58
2024-02-15T15:07:56.970Z,2.57
2024-02-15T15:09:49.598Z,3.08
2024-02-15T15:11:40.050Z,2.92
2024-02-15T15:13:14.513Z,6.85
2024-02-15T15:14:47.415Z,4.85
2024-02-15T15:16:22.006Z,4.57
2024-02-15T15:17:54.603Z,5.53
2024-02-15T15:19:28.274Z,4.78
2024-02-15T15:21:00.487Z,3.70
2024-02-15T15:22:35.629Z,3.60
2024-02-15T15:24:07.693Z,6.50
2024-02-15T15:25:41.834Z,4.97
2024-02-15T15:27:13.506Z,4.90
2024-02-15T15:28:49.026Z,4.47
2024-02-15T15:30:21.762Z,4.68
2024-02-15T15:31:54.441Z,2.30
2024-02-15T15:33:26.118Z,5.15
2024-02-15T15:34:59.159Z,2.13
2024-02-15T15:36:30.902Z,4.60
2024-02-15T15:38:04.233Z,4.00
2024-02-15T15:39:37.481Z,5.10
2024-02-15T15:41:10.657Z,2.75
2024-02-15T15:42:43.853Z,3.33
2024-02-15T15:44:16.975Z,3.53
2024-02-15T15:45:49.833Z,3.90
2024-02-15T15:47:23.165Z,1.43
2024-02-15T15:48:54.811Z,3.67
2024-02-15T15:50:29.365Z,2.88
2024-02-15T15:52:01.020Z,2.38
2024-02-15T15:53:34.917Z,5.28
2024-02-15T15:55:11.696Z,3.17
2024-02-15T15:56:44.533Z,7.40
2024-02-15T15:58:16.947Z,3.60
2024-02-15T15:59:51.915Z,5.13
2024-02-15T16:01:23.494Z,5.60
2024-02-15T16:02:57.376Z,3.55
2024-02-15T16:04:29.965Z,5.32
2024-02-15T16:06:01.662Z,5.72
2024-02-15T16:07:34.314Z,4.05
2024-02-15T16:09:05.949Z,4.40
2024-02-15T16:10:39.634Z,3.80
2024-02-15T16:12:11.381Z,5.45
2024-02-15T16:13:44.268Z,4.38
2024-02-15T16:15:17.328Z,4.47
2024-02-15T16:16:49.852Z,2.63
2024-02-15T16:18:21.965Z,4.43
2024-02-15T16:19:54.518Z,2.78
2024-02-15T16:21:26.149Z,3.38
2024-02-15T16:22:58.712Z,2.78
2024-02-15T16:24:30.399Z,3.28
2024-02-15T16:26:02.905Z,2.77
2024-02-15T16:27:34.478Z,4.28
2024-02-15T16:29:07.646Z,1.98
2024-02-15T16:30:40.566Z,3.00
2024-02-15T16:32:13.082Z,2.55
2024-02-15T16:33:44.862Z,3.20
2024-02-15T16:35:20.312Z,1.10
2024-02-15T16:36:52.284Z,3.50
2024-02-15T16:38:25.303Z,2.95
2024-02-15T16:39:56.830Z,1.90
2024-02-15T16:41:30.973Z,3.53
2024-02-15T16:43:05.736Z,5.18
2024-02-15T16:44:38.727Z,2.83
2024-02-15T16:46:14.041Z,6.38
2024-02-15T16:47:53.398Z,3.75
2024-02-15T16:49:26.160Z,5.18
2024-02-15T16:50:59.994Z,4.85
2024-02-15T16:52:31.734Z,3.08
2024-02-15T16:54:05.951Z,5.07
2024-02-15T16:55:37.519Z,2.47
2024-02-15T16:57:15.298Z,3.80
2024-02-15T16:58:47.513Z,2.97
2024-02-15T17:00:20.144Z,2.33
2024-02-15T17:01:54.538Z,2.35
2024-02-15T17:03:27.108Z,5.17
2024-02-15T17:04:58.919Z,2.72
2024-02-15T17:06:31.612Z,6.18
2024-02-15T17:08:03.668Z,1.13
2024-02-15T17:09:36.516Z,3.63
2024-02-15T17:11:08.109Z,2.72
2024-02-15T17:12:41.537Z,2.23
2024-02-15T17:14:15.341Z,3.53
2024-02-15T17:15:47.801Z,3.88
2024-02-15T17:17:20.864Z,3.92
2024-02-15T17:18:54.568Z,4.47
2024-02-15T17:20:26.289Z,4.65
2024-02-15T17:21:58.978Z,2.92
2024-02-15T17:23:30.486Z,2.20
2024-02-15T17:25:06.507Z,4.07
2024-02-15T17:26:43.626Z,1.58
2024-02-15T17:28:15.268Z,2.00
2024-02-15T17:29:48.119Z,2.60
2024-02-15T17:31:20.715Z,8.05
2024-02-15T17:32:54.220Z,7.45
2024-02-15T17:34:27.806Z,3.22
2024-02-15T17:35:59.878Z,2.78
2024-02-15T17:37:32.457Z,2.42
2024-02-15T17:39:04.981Z,5.00
2024-02-15T17:40:39.807Z,4.43
2024-02-15T17:42:11.365Z,1.15
2024-02-15T17:43:43.878Z,4.25
2024-02-15T17:45:16.774Z,3.45
2024-02-15T17:46:49.440Z,5.27
2024-02-15T17:48:22.922Z,2.72
2024-02-15T17:49:57.645Z,2.22
2024-02-15T17:51:29.684Z,3.83
2024-02-15T17:53:02.232Z,2.20
2024-02-15T17:54:33.792Z,1.50
2024-02-15T17:56:07.166Z,4.90
2024-02-15T17:57:39.539Z,3.50
2024-02-15T17:59:12.241Z,4.78
2024-02-15T18:00:44.384Z,3.13
2024-02-15T18:02:16.983Z,3.08
2024-02-15T18:03:54.053Z,4.55
2024-02-15T18:05:26.701Z,3.00
2024-02-15T18:06:58.394Z,4.07
2024-02-15T18:08:31.048Z,1.52
2024-02-15T18:10:04.283Z,4.20
2024-02-15T18:11:36.818Z,4.90
2024-02-15T18:13:08.408Z,2.90
2024-02-15T18:14:40.903Z,2.58
2024-02-15T18:16:13.094Z,3.70
2024-02-15T18:17:47.262Z,3.50
2024-02-15T18:19:22.928Z,3.93
2024-02-15T18:20:55.167Z,3.85
2024-02-15T18:22:28.992Z,1.85
2024-02-15T18:24:01.843Z,3.45
2024-02-15T18:25:34.380Z,2.78
2024-02-15T18:27:06.145Z,2.42
2024-02-15T18:28:38.767Z,1.55
2024-02-15T18:30:12.047Z,2.92
2024-02-15T18:31:44.796Z,2.42
2024-02-15T18:33:16.651Z,2.40
2024-02-15T18:34:50.575Z,1.58
2024-02-15T18:36:22.277Z,1.47
2024-02-15T18:37:54.823Z,3.20
2024-02-15T18:39:29.731Z,2.30
2024-02-15T18:41:06.397Z,2.78
2024-02-15T18:42:40.983Z,2.40
2024-02-15T18:44:12.687Z,1.83
2024-02-15T18:45:45.247Z,2.77
2024-02-15T18:47:16.787Z,4.90
2024-02-15T18:48:49.439Z,7.43
2024-02-15T18:50:24.395Z,3.17
2024-02-15T18:51:57.011Z,2.30
2024-02-15T18:53:28.547Z,3.13
2024-02-15T18:55:01.161Z,2.85
2024-02-15T18:56:32.696Z,2.80
2024-02-15T18:58:05.534Z,3.67
2024-02-15T18:59:37.066Z,2.13
2024-02-15T19:01:09.656Z,2.55
2024-02-15T19:02:41.695Z,2.07
2024-02-15T19:04:14.334Z,4.15
2024-02-15T19:05:47.364Z,2.97
2024-02-15T19:07:20.303Z,3.40
2024-02-15T19:08:51.953Z,2.08
2024-02-15T19:10:24.485Z,3.50
2024-02-15T19:11:57.282Z,4.25
2024-02-15T19:13:30.948Z,2.60
2024-02-15T19:15:07.644Z,1.65
2024-02-15T19:16:40.309Z,2.95
2024-02-15T19:18:12.262Z,3.58
2024-02-15T19:19:44.993Z,2.63
2024-02-15T19:21:17.930Z,6.38
2024-02-15T19:22:50.977Z,3.90
2024-02-15T19:24:22.626Z,2.70
2024-02-15T19:25:56.338Z,2.17
2024-02-15T19:27:27.937Z,5.00
2024-02-15T19:29:02.585Z,3.00
2024-02-15T19:30:34.413Z,4.20
2024-02-15T19:32:07.298Z,3.60
2024-02-15T19:33:48.258Z,2.58
2024-02-15T19:35:28.019Z,7.67
2024-02-15T19:37:11.518Z,8.90
2024-02-15T19:38:48.147Z,3.38
2024-02-15T19:40:21.371Z,3.08
2024-02-15T19:41:54.887Z,2.58
2024-02-15T19:43:28.632Z,3.37
2024-02-15T19:45:00.309Z,1.83
2024-02-15T19:46:33.133Z,1.00
2024-02-15T19:48:06.425Z,2.70
2024-02-15T19:49:39.040Z,4.90
2024-02-15T19:51:10.621Z,3.70
2024-02-15T19:52:44.524Z,3.55
2024-02-15T19:54:16.882Z,5.75
2024-02-15T19:55:49.414Z,7.35
2024-02-15T19:57:21.242Z,3.42
2024-02-15T19:58:56.031Z,2.07
2024-02-15T20:00:27.705Z,4.22
2024-02-15T20:02:00.403Z,3.45
2024-02-15T20:03:33.041Z,3.65
2024-02-15T20:05:08.090Z,1.75
2024-02-15T20:06:43.414Z,4.83
2024-02-15T20:08:17.289Z,3.22
2024-02-15T20:09:48.954Z,4.45
2024-02-15T20:11:26.678Z,1.98
2024-02-15T20:12:59.171Z,5.05
2024-02-15T20:14:31.681Z,1.75
2024-02-15T20:16:04.588Z,4.70
2024-02-15T20:17:37.197Z,2.47
2024-02-15T20:19:08.841Z,1.85
2024-02-15T20:20:42.539Z,2.45
2024-02-15T20:22:14.440Z,2.55
2024-02-15T20:23:49.667Z,3.50
2024-02-15T20:25:22.006Z,3.58
2024-02-15T20:26:54.593Z,5.10
2024-02-15T20:28:26.278Z,6.38
2024-02-15T20:29:58.912Z,3.75
2024-02-15T20:31:31.940Z,3.33
2024-02-15T20:33:06.432Z,1.63
2024-02-15T20:34:38.047Z,3.50
2024-02-15T20:36:10.628Z,2.15
2024-02-15T20:37:42.199Z,2.42
2024-02-15T20:39:16.815Z,2.73
2024-02-15T20:40:48.699Z,4.10
2024-02-15T20:42:22.463Z,1.52
2024-02-15T20:43:54.171Z,1.42
2024-02-15T20:45:28.311Z,3.33
2024-02-15T20:47:00.022Z,5.70
2024-02-15T20:48:32.866Z,2.75
2024-02-15T20:50:06.184Z,4.03
2024-02-15T20:51:38.360Z,2.38
2024-02-15T20:53:12.082Z,1.90